createdAt,value
2023-03-21T00:01:52.610Z,22.53
2023-03-21T00:04:20.381Z,21.43
2023-03-21T00:06:47.894Z,21.67
2023-03-21T00:09:15.475Z,21.37
2023-03-21T00:11:43.150Z,28.27
2023-03-21T00:14:14.370Z,28.33
2023-03-21T00:16:45.794Z,27.73
2023-03-21T00:19:15.906Z,23.00
2023-03-21T00:22:05.446Z,26.57
2023-03-21T00:24:33.920Z,32.27
2023-03-21T00:27:24.642Z,24.30
2023-03-21T00:29:49.936Z,24.03
2023-03-21T00:32:19.527Z,23.30
2023-03-21T00:35:05.154Z,20.60
2023-03-21T00:37:39.627Z,25.67
2023-03-21T00:40:16.259Z,23.07
2023-03-21T00:42:47.097Z,25.43
2023-03-21T00:45:15.444Z,22.90
2023-03-21T00:47:44.040Z,24.00
2023-03-21T00:50:14.538Z,24.60
2023-03-21T00:52:42.159Z,20.73
2023-03-21T00:55:14.352Z,21.50
2023-03-21T00:57:45.272Z,21.23
2023-03-21T01:00:17.854Z,20.00
2023-03-21T01:03:02.772Z,22.50
2023-03-21T01:05:55.790Z,20.53
2023-03-21T01:08:30.951Z,32.57
2023-03-21T01:11:04.127Z,23.43
2023-03-21T01:13:33.117Z,22.50
2023-03-21T01:16:03.321Z,18.30
2023-03-21T01:18:31.151Z,21.57
2023-03-21T01:21:01.264Z,28.63
2023-03-21T01:23:30.206Z,18.27
2023-03-21T01:25:58.095Z,19.23
2023-03-21T01:28:27.576Z,22.63
2023-03-21T01:30:55.648Z,22.43
2023-03-21T01:33:24.154Z,28.43
2023-03-21T01:35:57.588Z,20.43
2023-03-21T01:38:35.751Z,17.87
2023-03-21T01:41:08.568Z,21.70
2023-03-21T01:43:41.668Z,20.73
2023-03-21T01:46:32.257Z,23.57
2023-03-21T01:49:17.421Z,27.23
2023-03-21T01:51:52.550Z,24.80
2023-03-21T01:54:28.498Z,19.00
2023-03-21T01:56:58.652Z,26.73
2023-03-21T01:59:31.720Z,24.63
2023-03-21T02:02:31.245Z,27.97
2023-03-21T02:05:23.809Z,24.37
2023-03-21T02:07:53.557Z,22.93
2023-03-21T02:10:23.160Z,25.83
2023-03-21T02:12:55.005Z,21.43
2023-03-21T02:15:26.374Z,26.20
2023-03-21T02:18:08.059Z,29.07
2023-03-21T02:21:04.638Z,21.53
2023-03-21T02:24:25.255Z,24.70
2023-03-21T02:27:06.502Z,16.97
2023-03-21T02:30:09.882Z,24.50
2023-03-21T02:32:58.099Z,21.60
2023-03-21T02:35:54.338Z,21.27
2023-03-21T02:38:30.227Z,17.30
2023-03-21T02:41:13.173Z,25.70
2023-03-21T02:43:53.251Z,17.87
2023-03-21T02:46:33.502Z,22.17
2023-03-21T02:49:13.879Z,18.87
2023-03-21T02:51:43.539Z,19.23
2023-03-21T02:54:32.362Z,23.60
2023-03-21T02:57:06.049Z,18.37
2023-03-21T02:59:44.370Z,31.10
2023-03-21T03:02:21.645Z,19.07
2023-03-21T03:04:49.532Z,16.80
2023-03-21T03:07:29.430Z,22.13
2023-03-21T03:10:16.489Z,16.97
2023-03-21T03:12:50.549Z,20.17
2023-03-21T03:15:29.106Z,19.43
2023-03-21T03:18:04.164Z,18.50
2023-03-21T03:20:44.315Z,23.17
2023-03-21T03:23:21.473Z,22.20
2023-03-21T03:25:56.108Z,16.63
2023-03-21T03:28:29.678Z,28.13
2023-03-21T03:31:09.195Z,19.63
2023-03-21T03:33:47.391Z,24.60
2023-03-21T03:36:30.839Z,15.47
2023-03-21T03:39:04.409Z,20.40
2023-03-21T03:42:03.911Z,17.60
2023-03-21T03:44:30.896Z,18.20
2023-03-21T03:47:06.368Z,19.50
2023-03-21T03:49:39.241Z,22.33
2023-03-21T03:52:13.022Z,21.20
2023-03-21T03:54:47.361Z,15.93
2023-03-21T03:57:17.184Z,17.10
2023-03-21T03:59:47.126Z,19.80
2023-03-21T04:02:23.178Z,18.67
2023-03-21T04:04:52.884Z,18.13
2023-03-21T04:07:21.387Z,19.47
2023-03-21T04:09:50.463Z,17.53
2023-03-21T04:12:21.795Z,15.93
2023-03-21T04:15:10.917Z,20.93
2023-03-21T04:17:41.787Z,18.17
2023-03-21T04:20:18.509Z,16.90
2023-03-21T04:22:52.202Z,19.73
2023-03-21T04:25:32.335Z,13.60
2023-03-21T04:28:03.387Z,15.50
2023-03-21T04:30:39.806Z,17.70
2023-03-21T04:33:14.903Z,16.63
2023-03-21T04:35:50.360Z,16.07
2023-03-21T04:38:19.017Z,13.70
2023-03-21T04:40:46.520Z,14.03
2023-03-21T04:43:15.430Z,14.50
2023-03-21T04:45:42.942Z,14.97
2023-03-21T04:48:10.722Z,17.33
2023-03-21T04:50:39.017Z,17.70
2023-03-21T04:53:06.611Z,18.37
2023-03-21T04:55:34.486Z,17.30
2023-03-21T04:58:02.048Z,20.20
2023-03-21T05:00:32.086Z,20.23
2023-03-21T05:03:00.125Z,13.40
2023-03-21T05:05:27.903Z,16.30
2023-03-21T05:07:55.530Z,18.77
2023-03-21T05:10:24.072Z,14.93
2023-03-21T05:12:51.767Z,19.90
2023-03-21T05:15:19.392Z,14.67
2023-03-21T05:17:48.972Z,17.37
2023-03-21T05:20:17.697Z,16.90
2023-03-21T05:22:46.020Z,25.70
2023-03-21T05:25:18.171Z,15.53
2023-03-21T05:28:02.073Z,14.97
2023-03-21T05:30:31.571Z,21.33
2023-03-21T05:33:02.056Z,16.60
2023-03-21T05:35:30.480Z,16.63
2023-03-21T05:38:00.521Z,18.70
2023-03-21T05:40:32.224Z,19.70
2023-03-21T05:43:00.288Z,18.33
2023-03-21T05:45:27.877Z,16.20
2023-03-21T05:47:56.729Z,23.40
2023-03-21T05:50:30.292Z,19.93
2023-03-21T05:53:11.643Z,20.53
2023-03-21T05:55:40.520Z,15.03
2023-03-21T05:58:14.009Z,18.90
2023-03-21T06:00:46.266Z,19.83
2023-03-21T06:03:27.791Z,18.60
2023-03-21T06:06:01.174Z,15.40
2023-03-21T06:08:35.062Z,17.73
2023-03-21T06:11:03.016Z,20.13
2023-03-21T06:13:33.394Z,15.87
2023-03-21T06:16:01.539Z,15.90
2023-03-21T06:18:32.302Z,14.60
2023-03-21T06:21:16.183Z,17.70
2023-03-21T06:23:44.618Z,16.73
2023-03-21T06:26:12.289Z,17.10
2023-03-21T06:28:40.258Z,18.90
2023-03-21T06:31:08.372Z,14.07
2023-03-21T06:33:36.174Z,21.23
2023-03-21T06:36:03.740Z,17.63
2023-03-21T06:38:33.210Z,16.97
2023-03-21T06:41:04.563Z,20.13
2023-03-21T06:43:35.758Z,18.37
2023-03-21T06:46:05.421Z,16.50
2023-03-21T06:48:33.911Z,20.60
2023-03-21T06:51:01.709Z,17.23
2023-03-21T06:53:32.207Z,13.90
2023-03-21T06:56:22.300Z,16.10
2023-03-21T06:58:50.022Z,20.57
2023-03-21T07:01:56.749Z,14.37
2023-03-21T07:04:27.082Z,18.43
2023-03-21T07:06:55.970Z,17.57
2023-03-21T07:09:24.604Z,21.57
2023-03-21T07:11:55.460Z,18.13
2023-03-21T07:14:27.149Z,19.13
2023-03-21T07:16:54.797Z,20.53
2023-03-21T07:19:22.381Z,18.57
2023-03-21T07:21:49.883Z,22.63
2023-03-21T07:24:17.374Z,21.33
2023-03-21T07:26:44.840Z,18.87
2023-03-21T07:29:13.687Z,22.17
2023-03-21T07:31:41.498Z,21.73
2023-03-21T07:34:09.173Z,22.90
2023-03-21T07:36:36.911Z,21.30
2023-03-21T07:39:04.904Z,26.07
2023-03-21T07:41:32.396Z,18.50
2023-03-21T07:44:12.408Z,22.40
2023-03-21T07:46:41.408Z,22.20
2023-03-21T07:49:09.577Z,32.40
2023-03-21T07:51:37.203Z,28.07
2023-03-21T07:54:04.744Z,24.83
2023-03-21T07:56:32.298Z,24.93
2023-03-21T07:58:59.973Z,27.27
2023-03-21T08:01:27.490Z,25.73
2023-03-21T08:03:56.363Z,30.23
2023-03-21T08:06:24.295Z,22.60
2023-03-21T08:08:51.778Z,23.03
2023-03-21T08:11:21.439Z,20.80
2023-03-21T08:13:49.468Z,25.33
2023-03-21T08:16:16.996Z,23.93
2023-03-21T08:18:44.630Z,23.53
2023-03-21T08:21:13.531Z,22.23
2023-03-21T08:23:41.066Z,28.70
2023-03-21T08:26:09.270Z,22.23
2023-03-21T08:28:39.242Z,21.83
2023-03-21T08:31:08.717Z,22.67
2023-03-21T08:33:36.366Z,19.70
2023-03-21T08:36:04.604Z,27.93
2023-03-21T08:38:34.604Z,16.73
2023-03-21T08:41:02.188Z,16.57
2023-03-21T08:43:30.568Z,20.23
2023-03-21T08:45:58.120Z,18.80
2023-03-21T08:48:25.658Z,15.60
2023-03-21T08:50:53.225Z,17.83
2023-03-21T08:53:20.731Z,24.57
2023-03-21T08:55:50.342Z,18.67
2023-03-21T08:58:18.203Z,19.70
2023-03-21T09:00:45.682Z,27.13
2023-03-21T09:03:13.355Z,24.00
2023-03-21T09:05:41.342Z,18.23
2023-03-21T09:08:09.071Z,22.33
2023-03-21T09:10:36.514Z,21.00
2023-03-21T09:13:05.433Z,16.13
2023-03-21T09:15:33.169Z,22.67
2023-03-21T09:18:12.946Z,21.50
2023-03-21T09:20:40.738Z,23.33
2023-03-21T09:23:08.286Z,17.30
2023-03-21T09:25:36.827Z,21.93
2023-03-21T09:28:06.471Z,18.30
2023-03-21T09:30:36.433Z,19.93
2023-03-21T09:33:06.543Z,17.50
2023-03-21T09:35:34.778Z,18.60
2023-03-21T09:38:03.771Z,20.67
2023-03-21T09:40:46.735Z,23.73
2023-03-21T09:43:33.061Z,24.43
2023-03-21T09:46:08.730Z,17.37
2023-03-21T09:48:56.079Z,18.20
2023-03-21T09:51:28.306Z,26.30
2023-03-21T09:53:57.803Z,20.53
2023-03-21T09:56:26.446Z,15.33
2023-03-21T09:58:59.317Z,19.63
2023-03-21T10:01:29.917Z,23.77
2023-03-21T10:04:00.910Z,23.17
2023-03-21T10:06:30.622Z,19.23
2023-03-21T10:09:01.771Z,22.37
2023-03-21T10:11:32.810Z,15.57
2023-03-21T10:14:08.747Z,19.40
2023-03-21T10:16:42.009Z,19.43
2023-03-21T10:19:14.096Z,94.23
2023-03-21T10:22:03.437Z,46.23
2023-03-21T10:24:35.294Z,26.63
2023-03-21T10:27:04.274Z,22.50
2023-03-21T10:29:42.215Z,16.03
2023-03-21T10:32:11.110Z,23.40
2023-03-21T10:34:43.019Z,22.67
2023-03-21T10:37:13.642Z,18.37
2023-03-21T10:39:42.779Z,18.30
2023-03-21T10:42:18.238Z,15.07
2023-03-21T10:44:50.216Z,16.90
2023-03-21T10:47:22.374Z,24.53
2023-03-21T10:50:07.011Z,19.90
2023-03-21T10:52:38.220Z,15.60
2023-03-21T10:55:09.620Z,16.57
2023-03-21T10:57:38.257Z,15.53
2023-03-21T11:00:18.163Z,14.93
2023-03-21T11:02:50.134Z,14.87
2023-03-21T11:05:22.480Z,15.10
2023-03-21T11:07:59.697Z,23.67
2023-03-21T11:10:30.627Z,14.60
2023-03-21T11:13:02.489Z,19.40
2023-03-21T11:15:34.230Z,19.10
2023-03-21T11:18:16.925Z,16.17
2023-03-21T11:20:52.337Z,16.60
2023-03-21T11:23:21.176Z,17.27
2023-03-21T11:25:50.828Z,19.10
2023-03-21T11:28:21.579Z,18.47
2023-03-21T11:30:56.168Z,14.97
2023-03-21T11:33:28.100Z,14.80
2023-03-21T11:36:03.475Z,15.80
2023-03-21T11:38:33.809Z,11.67
2023-03-21T11:41:03.544Z,12.63
2023-03-21T11:43:33.631Z,14.13
2023-03-21T11:46:07.758Z,14.60
2023-03-21T11:48:41.491Z,11.43
2023-03-21T11:51:19.473Z,13.60
2023-03-21T11:53:52.535Z,15.20
2023-03-21T11:56:28.406Z,13.77
2023-03-21T11:59:25.822Z,14.83
2023-03-21T12:02:09.951Z,10.40
2023-03-21T12:04:42.097Z,15.03
2023-03-21T12:07:42.402Z,11.80
2023-03-21T12:10:37.816Z,13.30
2023-03-21T12:13:27.745Z,12.53
2023-03-21T12:16:03.688Z,10.13
2023-03-21T12:18:50.741Z,18.63
2023-03-21T12:21:21.969Z,13.50
2023-03-21T12:24:04.092Z,14.87
2023-03-21T12:26:33.789Z,13.37
2023-03-21T12:29:15.119Z,16.47
2023-03-21T12:31:54.587Z,13.50
2023-03-21T12:35:01.147Z,10.10
2023-03-21T12:37:35.182Z,18.87
2023-03-21T12:40:10.150Z,13.53
2023-03-21T12:43:03.552Z,9.73
2023-03-21T12:45:46.221Z,12.97
2023-03-21T12:48:23.544Z,12.73
2023-03-21T12:50:57.284Z,12.27
2023-03-21T12:53:37.000Z,13.30
2023-03-21T12:56:08.846Z,9.20
2023-03-21T12:58:45.655Z,12.77
2023-03-21T13:01:16.185Z,18.43
2023-03-21T13:03:51.449Z,11.50
2023-03-21T13:06:25.094Z,11.80
2023-03-21T13:08:59.217Z,10.07
2023-03-21T13:11:30.078Z,12.60
2023-03-21T13:14:05.365Z,14.10
2023-03-21T13:16:37.798Z,13.90
2023-03-21T13:19:16.811Z,9.77
2023-03-21T13:21:52.907Z,9.17
2023-03-21T13:24:38.864Z,11.97
2023-03-21T13:27:20.487Z,13.60
2023-03-21T13:29:51.711Z,16.60
2023-03-21T13:32:27.095Z,12.97
2023-03-21T13:34:56.486Z,11.07
2023-03-21T13:37:29.509Z,12.33
2023-03-21T13:40:01.736Z,9.90
2023-03-21T13:42:33.725Z,13.40
2023-03-21T13:45:03.378Z,11.23
2023-03-21T13:47:41.945Z,10.43
2023-03-21T13:50:30.830Z,13.80
2023-03-21T13:53:25.698Z,9.83
2023-03-21T13:56:02.169Z,13.30
2023-03-21T13:58:35.939Z,15.87
2023-03-21T14:01:17.926Z,19.43
2023-03-21T14:03:46.848Z,19.00
2023-03-21T14:06:17.215Z,11.93
2023-03-21T14:08:48.553Z,10.40
2023-03-21T14:11:19.888Z,13.10
2023-03-21T14:13:51.542Z,15.87
2023-03-21T14:16:22.075Z,11.67
2023-03-21T14:18:55.903Z,9.90
2023-03-21T14:21:26.429Z,11.60
2023-03-21T14:24:00.701Z,10.17
2023-03-21T14:26:31.655Z,9.80
2023-03-21T14:29:00.094Z,10.93
2023-03-21T14:31:27.795Z,14.80
2023-03-21T14:33:58.898Z,8.67
2023-03-21T14:36:29.472Z,12.53
2023-03-21T14:39:08.554Z,9.03
2023-03-21T14:41:46.092Z,12.70
2023-03-21T14:44:22.213Z,11.53
2023-03-21T14:46:49.721Z,9.13
2023-03-21T14:49:25.610Z,9.50
2023-03-21T14:51:55.991Z,9.93
2023-03-21T14:54:27.418Z,8.70
2023-03-21T14:57:00.658Z,16.47
2023-03-21T14:59:33.929Z,9.03
2023-03-21T15:02:04.109Z,11.00
2023-03-21T15:04:32.884Z,7.50
2023-03-21T15:07:05.005Z,6.33
2023-03-21T15:09:35.722Z,8.93
2023-03-21T15:12:08.994Z,9.47
2023-03-21T15:14:37.333Z,8.00
2023-03-21T15:17:07.446Z,10.30
2023-03-21T15:19:37.555Z,13.10
2023-03-21T15:22:11.848Z,7.80
2023-03-21T15:24:43.973Z,7.30
2023-03-21T15:27:16.031Z,7.73
2023-03-21T15:29:44.167Z,11.27
2023-03-21T15:32:17.141Z,8.47
2023-03-21T15:34:45.683Z,13.07
2023-03-21T15:37:19.058Z,11.00
2023-03-21T15:39:49.309Z,8.97
2023-03-21T15:42:27.404Z,10.37
2023-03-21T15:44:58.317Z,9.07
2023-03-21T15:47:52.198Z,7.93
2023-03-21T15:50:29.459Z,11.00
2023-03-21T15:53:01.118Z,10.13
2023-03-21T15:55:35.288Z,11.17
2023-03-21T15:58:06.710Z,10.80
2023-03-21T16:00:40.499Z,15.13
2023-03-21T16:03:16.691Z,10.27
2023-03-21T16:05:44.518Z,10.90
2023-03-21T16:08:20.781Z,10.77
2023-03-21T16:10:49.836Z,9.63
2023-03-21T16:13:17.416Z,11.50
2023-03-21T16:15:46.845Z,6.80
2023-03-21T16:18:17.051Z,15.40
2023-03-21T16:20:46.092Z,9.87
2023-03-21T16:23:15.613Z,7.50
2023-03-21T16:25:44.572Z,9.50
2023-03-21T16:28:16.593Z,7.87
2023-03-21T16:30:44.255Z,8.83
2023-03-21T16:33:20.964Z,7.80
2023-03-21T16:35:49.143Z,7.70
2023-03-21T16:38:17.003Z,5.43
2023-03-21T16:40:44.965Z,7.87
2023-03-21T16:43:14.011Z,6.63
2023-03-21T16:45:42.153Z,9.00
2023-03-21T16:48:16.351Z,8.70
2023-03-21T16:50:47.184Z,13.93
2023-03-21T16:53:14.687Z,9.23
2023-03-21T16:55:42.817Z,11.57
2023-03-21T16:58:16.252Z,10.90
2023-03-21T17:00:43.947Z,9.13
2023-03-21T17:03:15.727Z,11.43
2023-03-21T17:05:43.307Z,9.90
2023-03-21T17:08:15.613Z,11.73
2023-03-21T17:10:43.239Z,10.60
2023-03-21T17:13:10.888Z,8.57
2023-03-21T17:15:41.433Z,7.50
2023-03-21T17:18:08.951Z,8.93
2023-03-21T17:20:38.161Z,11.30
2023-03-21T17:23:07.388Z,6.27
2023-03-21T17:25:35.569Z,8.67
2023-03-21T17:28:03.138Z,9.07
2023-03-21T17:30:33.163Z,7.80
2023-03-21T17:33:02.143Z,8.40
2023-03-21T17:35:29.783Z,5.17
2023-03-21T17:37:59.132Z,7.73
2023-03-21T17:40:28.491Z,7.70
2023-03-21T17:42:56.348Z,8.83
2023-03-21T17:45:24.140Z,6.77
2023-03-21T17:47:52.169Z,7.23
2023-03-21T17:50:23.256Z,5.50
2023-03-21T17:52:51.522Z,7.60
2023-03-21T17:55:21.453Z,6.77
2023-03-21T17:57:49.620Z,6.67
2023-03-21T18:00:20.882Z,10.57
2023-03-21T18:02:49.061Z,6.63
2023-03-21T18:05:16.961Z,10.10
2023-03-21T18:08:08.734Z,9.90
2023-03-21T18:10:34.446Z,4.20
2023-03-21T18:13:02.074Z,7.47
2023-03-21T18:15:30.760Z,11.50
2023-03-21T18:17:58.724Z,5.93
2023-03-21T18:20:49.900Z,7.37
2023-03-21T18:23:18.680Z,8.37
2023-03-21T18:25:46.582Z,7.33
2023-03-21T18:28:17.642Z,5.90
2023-03-21T18:33:37.093Z,9.63
2023-03-21T18:36:07.356Z,7.87
2023-03-21T18:38:37.280Z,9.13
2023-03-21T18:41:05.099Z,6.33
2023-03-21T18:46:20.365Z,8.03
2023-03-21T18:48:49.197Z,6.87
2023-03-21T18:51:17.701Z,5.90
2023-03-21T18:53:46.590Z,6.30
2023-03-21T18:56:54.716Z,5.03
2023-03-21T18:59:02.400Z,6.60
2023-03-21T19:01:30.115Z,5.10
2023-03-21T19:04:20.138Z,6.00
2023-03-21T19:06:48.138Z,6.17
2023-03-21T19:09:18.096Z,4.20
2023-03-21T19:11:46.503Z,10.00
2023-03-21T19:14:15.782Z,4.50
2023-03-21T19:17:25.311Z,5.33
2023-03-21T19:19:33.772Z,5.20
2023-03-21T19:22:01.599Z,6.27
2023-03-21T19:24:31.286Z,3.87
2023-03-21T19:26:58.859Z,4.03
2023-03-21T19:29:26.647Z,4.10
2023-03-21T19:31:55.013Z,8.40
2023-03-21T19:34:22.715Z,4.03
2023-03-21T19:36:52.235Z,6.87
2023-03-21T19:39:22.216Z,7.20
2023-03-21T19:41:55.396Z,7.00
2023-03-21T19:44:29.088Z,5.23
2023-03-21T19:46:56.796Z,8.03
2023-03-21T19:49:34.720Z,6.40
2023-03-21T19:52:13.334Z,5.10
2023-03-21T19:54:41.110Z,5.63
2023-03-21T19:57:10.064Z,4.30
2023-03-21T19:59:39.254Z,5.13
2023-03-21T20:02:33.214Z,4.70
2023-03-21T20:04:55.027Z,4.37
2023-03-21T20:07:22.548Z,4.20
2023-03-21T20:09:52.933Z,5.33
2023-03-21T20:12:23.180Z,3.43
2023-03-21T20:14:58.044Z,5.53
2023-03-21T20:17:33.297Z,4.73
2023-03-21T20:20:01.429Z,6.63
2023-03-21T20:22:58.880Z,3.90
2023-03-21T20:25:16.690Z,3.50
2023-03-21T20:27:45.543Z,5.37
2023-03-21T20:30:18.802Z,3.87
2023-03-21T20:32:48.006Z,4.47
2023-03-21T20:35:29.628Z,4.27
2023-03-21T20:38:05.726Z,4.30
2023-03-21T20:40:34.230Z,3.97
2023-03-21T20:43:40.132Z,6.70
2023-03-21T20:46:00.463Z,6.40
2023-03-21T20:48:29.745Z,6.67
2023-03-21T20:51:01.899Z,3.90
2023-03-21T20:53:29.679Z,5.13
2023-03-21T20:56:02.046Z,4.23
2023-03-21T20:58:58.987Z,4.60
2023-03-21T21:01:20.271Z,7.17
2023-03-21T21:03:49.379Z,3.77
2023-03-21T21:06:19.569Z,6.07
2023-03-21T21:08:48.292Z,3.23
2023-03-21T21:12:04.758Z,4.23
2023-03-21T21:14:07.204Z,3.40
2023-03-21T21:16:35.061Z,5.47
2023-03-21T21:19:02.763Z,5.77
2023-03-21T21:21:31.087Z,3.87
2023-03-21T21:23:59.231Z,4.53
2023-03-21T21:26:27.694Z,4.10
2023-03-21T21:28:58.014Z,4.10
2023-03-21T21:31:28.064Z,3.30
2023-03-21T21:33:55.759Z,6.37
2023-03-21T21:36:23.496Z,3.90
2023-03-21T21:38:52.897Z,4.10
2023-03-21T21:41:22.562Z,6.73
2023-03-21T21:43:50.336Z,8.20
2023-03-21T21:46:17.946Z,3.70
2023-03-21T21:48:47.090Z,6.90
2023-03-21T21:51:18.256Z,4.20
2023-03-21T21:53:46.289Z,5.10
2023-03-21T21:56:14.164Z,4.80
2023-03-21T21:58:46.939Z,4.87
2023-03-21T22:01:14.478Z,5.70
2023-03-21T22:03:45.888Z,3.30
2023-03-21T22:06:15.026Z,5.90
2023-03-21T22:08:47.205Z,6.17
2023-03-21T22:11:16.129Z,4.77
2023-03-21T22:13:46.919Z,5.13
2023-03-21T22:16:15.194Z,4.77
2023-03-21T22:18:43.452Z,5.37
2023-03-21T22:21:11.064Z,5.70
2023-03-21T22:23:43.337Z,5.40
2023-03-21T22:26:11.666Z,6.07
2023-03-21T22:28:42.159Z,7.90
2023-03-21T22:31:12.642Z,5.60
2023-03-21T22:33:40.226Z,5.13
2023-03-21T22:36:08.690Z,4.13
2023-03-21T22:39:11.534Z,4.77
2023-03-21T22:41:39.442Z,5.20
2023-03-21T22:44:06.924Z,4.03
2023-03-21T22:46:34.818Z,5.53
2023-03-21T22:49:03.075Z,7.03
2023-03-21T22:51:30.759Z,11.80
2023-03-21T22:54:00.265Z,5.23
2023-03-21T22:56:27.925Z,4.13
2023-03-21T22:58:57.080Z,6.73
2023-03-21T23:01:24.791Z,4.67
2023-03-21T23:03:52.452Z,4.23
2023-03-21T23:06:20.251Z,5.17
2023-03-21T23:08:47.787Z,6.37
2023-03-21T23:11:16.624Z,6.60
2023-03-21T23:13:46.274Z,3.90
2023-03-21T23:16:14.476Z,4.37
2023-03-21T23:18:42.950Z,4.17
2023-03-21T23:21:13.145Z,4.80
2023-03-21T23:23:43.719Z,3.80
2023-03-21T23:26:12.297Z,6.17
2023-03-21T23:28:41.683Z,4.17
2023-03-21T23:31:10.991Z,4.50
2023-03-21T23:33:38.842Z,4.90
2023-03-21T23:36:07.572Z,3.70
2023-03-21T23:38:35.137Z,6.30
2023-03-21T23:41:06.792Z,4.40
2023-03-21T23:43:34.336Z,8.83
2023-03-21T23:46:03.747Z,9.50
2023-03-21T23:48:31.708Z,4.90
2023-03-21T23:51:00.346Z,8.43
2023-03-21T23:53:28.295Z,8.37
2023-03-21T23:55:58.278Z,4.57
2023-03-21T23:58:27.511Z,3.40
